Time;durP1;ratioP1;P1;durP2;ratioP2;P2;SDS_P1;SDS_P2;PMS_P1;PMS_P2;Temp;Humidity;BMP_temperature;BMP_pressure;BME280_temperature;BME280_humidity;BME280_pressure;Samples;Min_cycle;Max_cycle;Signal;HPM_P1;HPM_P2
2022/05/17 00:00:00;;;;;;;;;5.60;5.60;;;;;;;;4997087;28;8729;-67
2022/05/17 00:02:26;;;;;;;;;7.00;5.20;;;;;;;;4996876;28;8777;-77
2022/05/17 00:04:53;;;;;;;;;8.00;6.00;;;;;;;;4997318;28;8773;-71
2022/05/17 00:07:20;;;;;;;;;5.80;4.60;;;;;;;;4999582;28;8757;-63
2022/05/17 00:09:46;;;;;;;;;6.40;6.00;;;;;;;;5001680;28;8741;-72
2022/05/17 00:12:13;;;;;;;;;6.60;6.60;;;;;;;;5020526;28;8771;-71
2022/05/17 00:14:40;;;;;;;;;7.20;5.80;;;;;;;;5020465;28;8742;-75
2022/05/17 00:17:09;;;;;;;;;6.00;5.00;;;;;;;;5020509;28;8789;-71
2022/05/17 00:19:35;;;;;;;;;8.20;8.20;;;;;;;;5020364;28;8782;-66
2022/05/17 00:22:02;;;;;;;;;11.00;11.00;;;;;;;;5021020;28;8774;-77
2022/05/17 00:24:29;;;;;;;;;18.40;12.80;;;;;;;;5020247;28;8767;-69
2022/05/17 00:26:56;;;;;;;;;8.40;8.40;;;;;;;;5001784;28;8717;-65
2022/05/17 00:29:23;;;;;;;;;8.40;6.60;;;;;;;;5000547;28;8730;-75
2022/05/17 00:31:49;;;;;;;;;9.20;9.20;;;;;;;;5000577;28;8777;-70
2022/05/17 00:34:16;;;;;;;;;10.80;9.80;;;;;;;;5000692;28;8726;-73
2022/05/17 00:36:43;;;;;;;;;8.80;7.60;;;;;;;;4999861;28;9433;-81
2022/05/17 00:39:10;;;;;;;;;8.20;6.00;;;;;;;;4999652;28;8849;-68
2022/05/17 00:41:37;;;;;;;;;6.40;6.40;;;;;;;;5013646;28;8798;-71
2022/05/17 00:46:58;;;;;;;;;7.40;5.80;;;;;;;;5018346;28;8858;-78
2022/05/17 00:49:36;;;;;;;;;4.60;4.60;;;;;;;;5018906;28;8873;-75
2022/05/17 00:52:05;;;;;;;;;5.00;3.60;;;;;;;;5019571;28;8766;-69
2022/05/17 00:54:32;;;;;;;;;4.00;4.00;;;;;;;;5017975;28;8766;-71
2022/05/17 00:57:03;;;;;;;;;4.00;4.00;;;;;;;;5000458;28;8769;-76
2022/05/17 00:59:29;;;;;;;;;6.20;4.80;;;;;;;;4998473;28;8815;-60
2022/05/17 01:01:56;;;;;;;;;5.00;5.00;;;;;;;;4999945;28;8812;-63
2022/05/17 01:04:23;;;;;;;;;4.00;3.20;;;;;;;;5000267;28;8744;-75
2022/05/17 01:06:52;;;;;;;;;4.20;4.20;;;;;;;;4998342;28;9405;-74
2022/05/17 01:09:18;;;;;;;;;5.20;3.80;;;;;;;;4997739;28;8809;-66
2022/05/17 01:11:45;;;;;;;;;5.60;3.60;;;;;;;;5017222;28;8785;-84
2022/05/17 01:16:58;;;;;;;;;2.80;2.80;;;;;;;;5017961;28;9376;-71
2022/05/17 01:19:25;;;;;;;;;4.60;3.20;;;;;;;;5017851;28;8723;-65
2022/05/17 01:21:51;;;;;;;;;4.80;4.00;;;;;;;;5019562;28;8767;-72
2022/05/17 01:24:18;;;;;;;;;3.60;3.60;;;;;;;;5017867;28;8805;-70
2022/05/17 01:26:45;;;;;;;;;2.40;2.40;;;;;;;;5001950;28;8863;-72
2022/05/17 01:29:12;;;;;;;;;1.60;1.60;;;;;;;;4999067;28;8800;-72
2022/05/17 01:31:39;;;;;;;;;4.00;3.60;;;;;;;;4998156;28;8852;-71
2022/05/17 01:34:07;;;;;;;;;4.00;4.00;;;;;;;;4998006;28;8774;-71
2022/05/17 01:36:33;;;;;;;;;5.00;3.40;;;;;;;;4998971;28;8821;-71
2022/05/17 01:39:00;;;;;;;;;2.00;2.00;;;;;;;;5014130;28;8784;-72
2022/05/17 01:41:27;;;;;;;;;1.40;1.40;;;;;;;;5013137;28;8778;-70
2022/05/17 01:43:54;;;;;;;;;5.00;3.60;;;;;;;;5019358;28;8786;-71
2022/05/17 01:46:21;;;;;;;;;3.80;3.80;;;;;;;;5039242;28;8817;-71
2022/05/17 01:48:51;;;;;;;;;2.00;2.00;;;;;;;;5038381;28;8761;-72
2022/05/17 01:51:18;;;;;;;;;2.00;2.00;;;;;;;;5038488;28;9420;-70
2022/05/17 01:53:45;;;;;;;;;3.20;2.80;;;;;;;;5038012;28;8848;-72
2022/05/17 01:56:12;;;;;;;;;5.20;3.60;;;;;;;;5020102;28;9434;-72
2022/05/17 01:58:38;;;;;;;;;2.60;2.60;;;;;;;;5002321;28;9295;-71
2022/05/17 02:01:06;;;;;;;;;2.20;2.20;;;;;;;;5017091;28;8795;-67
2022/05/17 02:03:34;;;;;;;;;2.40;2.40;;;;;;;;5017451;28;8755;-78
2022/05/17 02:06:02;;;;;;;;;3.20;3.00;;;;;;;;5016831;28;8821;-73
2022/05/17 02:08:29;;;;;;;;;6.60;1.00;;;;;;;;5009241;28;9486;-76
2022/05/17 02:10:56;;;;;;;;;3.40;3.40;;;;;;;;5017533;28;8759;-77
2022/05/17 02:13:23;;;;;;;;;3.20;2.60;;;;;;;;5033642;28;8757;-71
2022/05/17 02:15:50;;;;;;;;;2.60;2.60;;;;;;;;5032899;28;8772;-71
2022/05/17 02:18:16;;;;;;;;;0.20;0.20;;;;;;;;5022893;28;8767;-73
2022/05/17 02:20:43;;;;;;;;;5.00;2.60;;;;;;;;5017733;28;8801;-70
2022/05/17 02:23:10;;;;;;;;;4.40;3.00;;;;;;;;5017822;28;8787;-71
2022/05/17 02:25:36;;;;;;;;;3.00;3.00;;;;;;;;5009657;28;8896;-71
2022/05/17 02:28:04;;;;;;;;;4.60;2.80;;;;;;;;4980663;28;8827;-71
2022/05/17 02:30:31;;;;;;;;;2.60;2.60;;;;;;;;4996562;28;9173;-72
2022/05/17 02:32:58;;;;;;;;;5.00;4.00;;;;;;;;4997431;28;8753;-72
2022/05/17 02:35:25;;;;;;;;;3.80;3.80;;;;;;;;4997400;28;8805;-71
2022/05/17 02:37:51;;;;;;;;;3.00;3.00;;;;;;;;4995978;28;8785;-71
2022/05/17 02:40:18;;;;;;;;;3.80;2.80;;;;;;;;5002621;28;8764;-71
2022/05/17 02:42:54;;;;;;;;;4.00;3.00;;;;;;;;5017842;28;8759;-79
2022/05/17 02:45:20;;;;;;;;;5.20;2.00;;;;;;;;5017088;28;8766;-70
2022/05/17 02:47:47;;;;;;;;;2.40;2.40;;;;;;;;5032281;28;8754;-75
2022/05/17 02:50:14;;;;;;;;;2.00;2.00;;;;;;;;5017211;28;8844;-72
2022/05/17 02:52:41;;;;;;;;;3.60;1.80;;;;;;;;5015884;28;8778;-68
2022/05/17 02:55:08;;;;;;;;;3.00;3.00;;;;;;;;5013932;28;8872;-70
2022/05/17 02:57:35;;;;;;;;;2.40;2.40;;;;;;;;4979822;28;8761;-68
2022/05/17 03:00:01;;;;;;;;;5.20;4.00;;;;;;;;4980470;28;8815;-60
2022/05/17 03:02:28;;;;;;;;;3.00;3.00;;;;;;;;4979812;28;8773;-70
2022/05/17 03:04:55;;;;;;;;;1.60;1.60;;;;;;;;4997584;28;8782;-69
2022/05/17 03:07:22;;;;;;;;;2.80;2.60;;;;;;;;4997483;28;8749;-60
2022/05/17 03:09:48;;;;;;;;;4.00;3.00;;;;;;;;4981208;28;8753;-68
2022/05/17 03:12:15;;;;;;;;;2.00;2.00;;;;;;;;5017041;28;8821;-70
2022/05/17 03:14:42;;;;;;;;;3.20;2.00;;;;;;;;5016455;28;9435;-63
2022/05/17 03:17:12;;;;;;;;;3.00;3.00;;;;;;;;5016519;28;8711;-70
2022/05/17 03:19:39;;;;;;;;;5.00;3.00;;;;;;;;5016240;28;8751;-69
2022/05/17 03:22:06;;;;;;;;;4.20;2.00;;;;;;;;5016608;28;8885;-68
2022/05/17 03:24:32;;;;;;;;;4.00;2.40;;;;;;;;5014868;28;8755;-70
2022/05/17 03:26:59;;;;;;;;;2.00;2.00;;;;;;;;4986670;28;8741;-64
2022/05/17 03:29:26;;;;;;;;;2.80;2.80;;;;;;;;4996728;28;8770;-69
2022/05/17 03:31:53;;;;;;;;;3.00;2.20;;;;;;;;4997020;28;8769;-65
2022/05/17 03:34:19;;;;;;;;;5.80;4.40;;;;;;;;4996775;28;8779;-68
2022/05/17 03:36:46;;;;;;;;;2.60;2.60;;;;;;;;4979483;28;9474;-75
2022/05/17 03:39:14;;;;;;;;;4.00;4.00;;;;;;;;4996511;28;8796;-68
2022/05/17 03:41:40;;;;;;;;;3.40;2.00;;;;;;;;5009193;28;8770;-72
2022/05/17 03:44:07;;;;;;;;;3.40;2.40;;;;;;;;5013108;28;8818;-66
2022/05/17 03:46:34;;;;;;;;;2.20;1.00;;;;;;;;5015892;28;9539;-68
2022/05/17 03:49:01;;;;;;;;;3.40;3.40;;;;;;;;5015046;28;8743;-68
2022/05/17 03:51:28;;;;;;;;;4.80;3.00;;;;;;;;5016053;28;8870;-66
2022/05/17 03:53:54;;;;;;;;;2.40;2.00;;;;;;;;5015872;28;8801;-74
2022/05/17 03:56:23;;;;;;;;;3.80;3.80;;;;;;;;5015370;28;8783;-63
2022/05/17 03:58:50;;;;;;;;;2.80;1.80;;;;;;;;5030172;28;8766;-58
2022/05/17 04:01:17;;;;;;;;;2.40;2.20;;;;;;;;5013055;28;8779;-72
2022/05/17 04:03:43;;;;;;;;;5.40;3.40;;;;;;;;5014332;28;8763;-72
2022/05/17 04:06:10;;;;;;;;;4.00;4.00;;;;;;;;5016316;28;8898;-62
2022/05/17 04:08:37;;;;;;;;;4.00;2.60;;;;;;;;5015668;28;8864;-65
2022/05/17 04:11:04;;;;;;;;;2.40;2.00;;;;;;;;5003886;28;8802;-68
2022/05/17 04:13:32;;;;;;;;;3.80;3.00;;;;;;;;4978848;28;9458;-61
2022/05/17 04:15:59;;;;;;;;;4.80;3.00;;;;;;;;4996215;28;8768;-64
2022/05/17 04:18:26;;;;;;;;;2.80;2.80;;;;;;;;4994922;28;9776;-71
2022/05/17 04:20:57;;;;;;;;;5.20;4.00;;;;;;;;4979285;28;9465;-59
2022/05/17 04:23:24;;;;;;;;;5.40;5.20;;;;;;;;4995698;28;8795;-62
2022/05/17 04:25:51;;;;;;;;;5.80;3.80;;;;;;;;5006010;28;8767;-72
2022/05/17 04:28:17;;;;;;;;;5.20;5.20;;;;;;;;5016124;28;8759;-66
2022/05/17 04:30:44;;;;;;;;;4.80;4.80;;;;;;;;5017315;28;8791;-59
2022/05/17 04:33:11;;;;;;;;;3.80;3.80;;;;;;;;5013648;28;9428;-77
2022/05/17 04:35:38;;;;;;;;;6.60;6.20;;;;;;;;5033655;28;8849;-69
2022/05/17 04:38:06;;;;;;;;;6.00;5.00;;;;;;;;5016001;28;8785;-59
2022/05/17 04:40:34;;;;;;;;;4.80;4.80;;;;;;;;5034015;28;8750;-69
2022/05/17 04:43:00;;;;;;;;;7.00;4.00;;;;;;;;5035511;28;8757;-71
2022/05/17 04:45:30;;;;;;;;;5.00;5.00;;;;;;;;5034101;28;8784;-59
2022/05/17 04:47:56;;;;;;;;;4.60;4.00;;;;;;;;5018230;28;8974;-66
2022/05/17 04:50:23;;;;;;;;;6.80;6.80;;;;;;;;5034647;28;8773;-69
2022/05/17 04:52:50;;;;;;;;;5.20;5.20;;;;;;;;5036484;28;8761;-69
2022/05/17 04:55:17;;;;;;;;;6.40;5.00;;;;;;;;5039027;28;8774;-66
2022/05/17 04:57:44;;;;;;;;;6.00;6.00;;;;;;;;5038223;28;9464;-67
2022/05/17 05:00:12;;;;;;;;;8.20;6.80;;;;;;;;5038395;28;8887;-70
2022/05/17 05:02:39;;;;;;;;;4.20;4.20;;;;;;;;5027985;28;8828;-64
2022/05/17 05:05:06;;;;;;;;;8.00;6.00;;;;;;;;5037398;28;8862;-73
2022/05/17 05:07:32;;;;;;;;;5.60;5.20;;;;;;;;5020571;28;8769;-68
2022/05/17 05:09:59;;;;;;;;;7.00;6.00;;;;;;;;5038922;28;8725;-69
2022/05/17 05:12:26;;;;;;;;;5.60;5.60;;;;;;;;5036918;28;8773;-71
2022/05/17 05:14:53;;;;;;;;;6.80;6.80;;;;;;;;5037106;28;8729;-65
2022/05/17 05:17:19;;;;;;;;;7.00;7.00;;;;;;;;5037926;28;9402;-74
2022/05/17 05:19:46;;;;;;;;;7.60;6.40;;;;;;;;5038222;28;8765;-66
2022/05/17 05:22:13;;;;;;;;;8.20;5.60;;;;;;;;5038858;28;8788;-69
2022/05/17 05:24:39;;;;;;;;;8.20;7.20;;;;;;;;5020857;28;8788;-72
2022/05/17 05:27:06;;;;;;;;;7.80;6.40;;;;;;;;5017722;28;8838;-64
2022/05/17 05:29:34;;;;;;;;;7.60;7.60;;;;;;;;5018570;28;8795;-72
2022/05/17 05:32:01;;;;;;;;;8.20;8.20;;;;;;;;5016960;28;8792;-64
2022/05/17 05:34:28;;;;;;;;;9.00;9.00;;;;;;;;5018037;28;8768;-64
2022/05/17 05:36:55;;;;;;;;;8.00;6.40;;;;;;;;5019063;28;8800;-70
2022/05/17 05:39:22;;;;;;;;;5.40;5.00;;;;;;;;5000422;28;8855;-65
2022/05/17 05:41:49;;;;;;;;;6.80;5.80;;;;;;;;5018267;28;8762;-72
2022/05/17 05:44:15;;;;;;;;;5.80;4.00;;;;;;;;5038543;28;8786;-68
2022/05/17 05:46:42;;;;;;;;;5.60;4.20;;;;;;;;5037947;28;8798;-58
2022/05/17 05:49:10;;;;;;;;;6.20;5.40;;;;;;;;5038372;28;8765;-72
2022/05/17 05:51:36;;;;;;;;;6.80;6.00;;;;;;;;5019979;28;8827;-73
2022/05/17 05:54:03;;;;;;;;;8.80;7.00;;;;;;;;5012577;28;8759;-71
2022/05/17 05:56:30;;;;;;;;;5.60;5.60;;;;;;;;5016323;28;8763;-59
2022/05/17 05:58:57;;;;;;;;;5.20;4.40;;;;;;;;5030878;28;8782;-71
2022/05/17 06:01:24;;;;;;;;;6.40;6.40;;;;;;;;5017974;28;8744;-74
2022/05/17 06:03:50;;;;;;;;;6.40;5.00;;;;;;;;5033404;28;8749;-74
2022/05/17 06:06:17;;;;;;;;;6.40;6.40;;;;;;;;5021352;28;8767;-59
2022/05/17 06:08:44;;;;;;;;;5.00;3.60;;;;;;;;5016435;28;8821;-70
2022/05/17 06:11:11;;;;;;;;;4.00;3.20;;;;;;;;5016131;28;8798;-67
2022/05/17 06:13:38;;;;;;;;;4.20;4.20;;;;;;;;5016428;28;9002;-68
2022/05/17 06:16:04;;;;;;;;;6.80;6.80;;;;;;;;5017158;28;8747;-71
2022/05/17 06:18:31;;;;;;;;;4.00;4.00;;;;;;;;5017777;28;8767;-64
2022/05/17 06:20:58;;;;;;;;;7.20;4.80;;;;;;;;5017899;28;8762;-72
2022/05/17 06:23:26;;;;;;;;;8.00;6.00;;;;;;;;5016372;28;8865;-65
2022/05/17 06:25:53;;;;;;;;;6.60;6.60;;;;;;;;5017705;28;9424;-69
2022/05/17 06:28:19;;;;;;;;;4.80;4.80;;;;;;;;5018266;28;8820;-69
2022/05/17 06:30:46;;;;;;;;;6.40;6.00;;;;;;;;5018846;28;8765;-60
2022/05/17 06:33:13;;;;;;;;;6.20;5.00;;;;;;;;5033603;28;8759;-70
2022/05/17 06:35:44;;;;;;;;;5.80;5.60;;;;;;;;5016712;28;9482;-70
2022/05/17 06:38:11;;;;;;;;;5.60;5.00;;;;;;;;5018082;28;8790;-61
2022/05/17 06:40:38;;;;;;;;;6.00;6.00;;;;;;;;5009360;28;9718;-72
2022/05/17 06:43:05;;;;;;;;;7.80;6.20;;;;;;;;4999039;28;8813;-74
2022/05/17 06:45:35;;;;;;;;;4.60;4.60;;;;;;;;5013412;28;8986;-60
2022/05/17 06:48:02;;;;;;;;;4.00;4.00;;;;;;;;4998332;28;8764;-69
2022/05/17 06:50:32;;;;;;;;;3.60;3.00;;;;;;;;4998260;28;8757;-72
2022/05/17 06:52:59;;;;;;;;;2.40;2.00;;;;;;;;4993009;28;8782;-64
2022/05/17 06:55:26;;;;;;;;;5.20;5.20;;;;;;;;5014070;28;8951;-58
2022/05/17 06:57:53;;;;;;;;;4.00;2.80;;;;;;;;5016638;28;9404;-74
2022/05/17 07:00:20;;;;;;;;;4.00;4.00;;;;;;;;5017181;28;8747;-76
2022/05/17 07:02:47;;;;;;;;;6.00;5.20;;;;;;;;5032581;28;8726;-68
2022/05/17 07:05:14;;;;;;;;;5.40;4.20;;;;;;;;5017148;28;8852;-66
2022/05/17 07:07:40;;;;;;;;;7.20;4.40;;;;;;;;5017278;28;8821;-69
2022/05/17 07:13:08;;;;;;;;;3.80;3.80;;;;;;;;4997854;28;8745;-69
2022/05/17 07:15:35;;;;;;;;;3.40;3.40;;;;;;;;4997160;28;9900;-62
2022/05/17 07:18:02;;;;;;;;;4.20;3.20;;;;;;;;5012281;28;8808;-62
2022/05/17 07:20:29;;;;;;;;;4.00;4.00;;;;;;;;5011804;28;9441;-62
2022/05/17 07:22:55;;;;;;;;;6.60;3.00;;;;;;;;4996669;28;8801;-62
2022/05/17 07:25:22;;;;;;;;;4.40;3.60;;;;;;;;5002434;28;8748;-61
2022/05/17 07:27:49;;;;;;;;;3.80;3.80;;;;;;;;5018757;28;9401;-62
2022/05/17 07:30:16;;;;;;;;;3.00;3.00;;;;;;;;5021091;28;8752;-62
2022/05/17 07:32:43;;;;;;;;;3.00;3.00;;;;;;;;5016942;28;8854;-62
2022/05/17 07:35:09;;;;;;;;;3.00;2.80;;;;;;;;5016414;28;8743;-64
2022/05/17 07:37:36;;;;;;;;;3.80;2.80;;;;;;;;5016281;28;9444;-62
2022/05/17 07:40:04;;;;;;;;;4.20;3.00;;;;;;;;5012179;28;8766;-63
2022/05/17 07:42:31;;;;;;;;;2.00;2.00;;;;;;;;4996339;28;8761;-63
2022/05/17 07:44:58;;;;;;;;;2.80;2.80;;;;;;;;4996609;28;8737;-62
2022/05/17 07:47:29;;;;;;;;;3.00;2.00;;;;;;;;4979540;28;8753;-63
2022/05/17 07:49:56;;;;;;;;;3.80;2.60;;;;;;;;4996170;28;8734;-62
2022/05/17 07:52:23;;;;;;;;;3.20;3.20;;;;;;;;4996836;28;8726;-62
2022/05/17 07:54:50;;;;;;;;;3.00;3.00;;;;;;;;4980081;28;8871;-62
2022/05/17 07:57:16;;;;;;;;;5.00;5.00;;;;;;;;5015700;28;8778;-61
2022/05/17 07:59:43;;;;;;;;;5.00;3.80;;;;;;;;5014996;28;8810;-62
2022/05/17 08:02:11;;;;;;;;;3.80;3.80;;;;;;;;5015457;28;8798;-62
2022/05/17 08:04:37;;;;;;;;;2.40;2.40;;;;;;;;5014607;28;9724;-62
2022/05/17 08:07:05;;;;;;;;;6.20;4.40;;;;;;;;5015902;28;8787;-68
2022/05/17 08:09:32;;;;;;;;;4.60;2.20;;;;;;;;5015155;28;8771;-63
2022/05/17 08:12:00;;;;;;;;;2.60;2.60;;;;;;;;5036027;28;8757;-63
2022/05/17 08:14:27;;;;;;;;;8.20;3.40;;;;;;;;5035320;28;9472;-62
2022/05/17 08:16:53;;;;;;;;;3.40;3.40;;;;;;;;5035853;28;8807;-64
2022/05/17 08:19:20;;;;;;;;;6.00;4.20;;;;;;;;5036441;28;8754;-63
2022/05/17 08:21:47;;;;;;;;;2.60;2.60;;;;;;;;5018388;28;8768;-64
2022/05/17 08:24:13;;;;;;;;;4.00;3.60;;;;;;;;5034714;28;8778;-64
2022/05/17 08:29:28;;;;;;;;;2.40;2.40;;;;;;;;5040029;28;8910;-64
2022/05/17 08:34:43;;;;;;;;;7.60;4.60;;;;;;;;5019358;28;8723;-63
2022/05/17 08:37:09;;;;;;;;;2.00;2.00;;;;;;;;5039939;28;8781;-64
2022/05/17 08:39:36;;;;;;;;;4.20;2.40;;;;;;;;5019966;28;8782;-63
2022/05/17 08:42:04;;;;;;;;;5.20;5.20;;;;;;;;5001280;28;8769;-63
2022/05/17 08:44:38;;;;;;;;;6.20;6.20;;;;;;;;5000285;28;8878;-63
2022/05/17 08:47:06;;;;;;;;;6.60;6.60;;;;;;;;5000541;28;8815;-63
2022/05/17 08:49:45;;;;;;;;;9.80;7.00;;;;;;;;5000391;28;8745;-63
2022/05/17 08:52:19;;;;;;;;;9.00;9.00;;;;;;;;5021383;28;8744;-64
2022/05/17 08:54:49;;;;;;;;;7.00;7.00;;;;;;;;4985058;28;8840;-63
2022/05/17 08:57:22;;;;;;;;;9.20;9.00;;;;;;;;5040450;28;8809;-63
2022/05/17 08:59:48;;;;;;;;;10.40;9.40;;;;;;;;5039888;28;8915;-63
2022/05/17 09:02:18;;;;;;;;;8.80;8.20;;;;;;;;5006669;28;9431;-63
2022/05/17 09:05:03;;;;;;;;;8.20;7.00;;;;;;;;5019274;28;8750;-64
2022/05/17 09:07:35;;;;;;;;;7.00;5.80;;;;;;;;5020191;28;8790;-63
2022/05/17 09:10:20;;;;;;;;;11.50;9.00;;;;;;;;5019736;28;8799;-64
2022/05/17 09:12:51;;;;;;;;;9.00;9.00;;;;;;;;5020197;28;8794;-63
2022/05/17 09:15:18;;;;;;;;;7.80;7.80;;;;;;;;5020075;28;8767;-62
2022/05/17 09:17:45;;;;;;;;;8.40;6.20;;;;;;;;5028085;28;8763;-64
2022/05/17 09:20:15;;;;;;;;;11.00;9.00;;;;;;;;5034508;28;8889;-64
2022/05/17 09:22:42;;;;;;;;;10.00;10.00;;;;;;;;5019427;28;8743;-64
2022/05/17 09:25:17;;;;;;;;;11.75;10.00;;;;;;;;5016360;28;8856;-64
2022/05/17 09:27:46;;;;;;;;;10.60;9.00;;;;;;;;4999838;28;8816;-64
2022/05/17 09:30:14;;;;;;;;;9.00;9.00;;;;;;;;4998744;28;8922;-64
2022/05/17 09:32:44;;;;;;;;;14.75;12.50;;;;;;;;4999608;28;8812;-63
2022/05/17 09:35:12;;;;;;;;;7.80;6.80;;;;;;;;4982574;28;8846;-64
2022/05/17 09:37:40;;;;;;;;;11.60;5.80;;;;;;;;4997977;28;8757;-63
2022/05/17 09:40:07;;;;;;;;;10.40;9.20;;;;;;;;4984587;28;8798;-64
2022/05/17 09:42:53;;;;;;;;;10.60;10.20;;;;;;;;5008438;28;8783;-64
2022/05/17 09:45:21;;;;;;;;;13.40;10.00;;;;;;;;5018747;28;9436;-63
2022/05/17 09:47:57;;;;;;;;;7.20;6.60;;;;;;;;5018800;28;8779;-63
2022/05/17 09:53:11;;;;;;;;;9.20;8.00;;;;;;;;5024050;28;8761;-63
2022/05/17 09:55:40;;;;;;;;;8.20;6.20;;;;;;;;5038049;28;8777;-63
2022/05/17 09:58:10;;;;;;;;;12.40;10.00;;;;;;;;5021903;28;8777;-64
2022/05/17 10:00:45;;;;;;;;;10.20;10.20;;;;;;;;5038159;28;8819;-64
2022/05/17 10:03:15;;;;;;;;;9.40;9.40;;;;;;;;5020881;28;8785;-64
2022/05/17 10:05:45;;;;;;;;;10.80;8.40;;;;;;;;5038545;28;8878;-64
2022/05/17 10:08:28;;;;;;;;;9.40;9.00;;;;;;;;5038209;28;8773;-64
2022/05/17 10:11:15;;;;;;;;;8.20;7.60;;;;;;;;5038301;28;8745;-64
2022/05/17 10:13:50;;;;;;;;;9.60;8.40;;;;;;;;5038501;28;8764;-64
2022/05/17 10:16:25;;;;;;;;;11.00;9.20;;;;;;;;5039302;28;8725;-64
2022/05/17 10:18:55;;;;;;;;;10.80;8.80;;;;;;;;5021173;28;9554;-64
2022/05/17 10:21:25;;;;;;;;;9.80;8.80;;;;;;;;5037833;28;8773;-63
2022/05/17 10:24:10;;;;;;;;;11.20;8.20;;;;;;;;5038031;28;8777;-63
2022/05/17 10:26:38;;;;;;;;;8.00;7.40;;;;;;;;5036497;28;8800;-64
2022/05/17 10:29:29;;;;;;;;;7.80;6.20;;;;;;;;5037891;28;8942;-64
2022/05/17 10:32:14;;;;;;;;;13.80;12.60;;;;;;;;5030726;28;8797;-63
2022/05/17 10:34:59;;;;;;;;;13.80;13.60;;;;;;;;5020350;28;8838;-63
2022/05/17 10:37:52;;;;;;;;;19.00;17.20;;;;;;;;5037957;28;8781;-63
2022/05/17 10:40:20;;;;;;;;;21.75;16.75;;;;;;;;5034970;28;8758;-63
2022/05/17 10:42:47;;;;;;;;;16.20;14.60;;;;;;;;5037762;28;8765;-63
2022/05/17 10:45:18;;;;;;;;;12.20;9.80;;;;;;;;5037569;28;8934;-64
2022/05/17 10:47:48;;;;;;;;;10.60;10.60;;;;;;;;5037592;28;8793;-64
2022/05/17 10:50:20;;;;;;;;;13.60;12.00;;;;;;;;5037345;28;8745;-64
2022/05/17 10:52:50;;;;;;;;;13.60;12.40;;;;;;;;5033274;28;8774;-63
2022/05/17 10:55:29;;;;;;;;;13.00;11.60;;;;;;;;5028128;28;8866;-63
2022/05/17 10:58:10;;;;;;;;;11.20;9.60;;;;;;;;4997310;28;8793;-64
2022/05/17 11:00:41;;;;;;;;;13.00;12.00;;;;;;;;4996614;28;8831;-63
2022/05/17 11:03:18;;;;;;;;;9.40;9.40;;;;;;;;4997084;28;8775;-64
2022/05/17 11:06:11;;;;;;;;;10.60;10.40;;;;;;;;4998341;28;8740;-64
2022/05/17 11:08:44;;;;;;;;;11.00;11.00;;;;;;;;4984405;28;8806;-64
2022/05/17 11:11:23;;;;;;;;;10.60;10.00;;;;;;;;5009616;28;8753;-64
2022/05/17 11:13:53;;;;;;;;;10.60;9.20;;;;;;;;4997142;28;8763;-63
2022/05/17 11:16:23;;;;;;;;;8.60;7.80;;;;;;;;5032759;28;8816;-64
2022/05/17 11:18:50;;;;;;;;;11.20;10.20;;;;;;;;5018027;28;8744;-64
2022/05/17 11:21:21;;;;;;;;;13.80;13.00;;;;;;;;5002256;28;8805;-64
2022/05/17 11:23:53;;;;;;;;;17.60;12.40;;;;;;;;5029082;28;8751;-64
2022/05/17 11:26:35;;;;;;;;;12.20;9.80;;;;;;;;4984047;28;8777;-63
2022/05/17 11:29:20;;;;;;;;;3.80;3.80;;;;;;;;4997869;28;8890;-64
2022/05/17 11:31:53;;;;;;;;;14.40;12.60;;;;;;;;4998056;28;8732;-64
2022/05/17 11:34:23;;;;;;;;;19.20;16.20;;;;;;;;4998394;28;8747;-63
2022/05/17 11:36:54;;;;;;;;;12.60;9.80;;;;;;;;4997710;28;8802;-63
2022/05/17 11:39:39;;;;;;;;;20.25;15.75;;;;;;;;4977931;28;9474;-63
2022/05/17 11:42:13;;;;;;;;;15.60;14.00;;;;;;;;4997311;28;8779;-64
2022/05/17 11:44:43;;;;;;;;;15.40;15.00;;;;;;;;4997503;28;8771;-64
2022/05/17 11:47:30;;;;;;;;;18.00;15.60;;;;;;;;4997587;28;8787;-64
2022/05/17 11:50:12;;;;;;;;;21.40;14.80;;;;;;;;4997711;28;8759;-64
2022/05/17 11:52:38;;;;;;;;;17.40;16.40;;;;;;;;4997229;28;9474;-63
2022/05/17 11:55:09;;;;;;;;;16.80;16.80;;;;;;;;5015816;28;8855;-64
2022/05/17 11:57:38;;;;;;;;;14.80;12.20;;;;;;;;5013905;28;8761;-63
2022/05/17 12:00:09;;;;;;;;;11.00;7.60;;;;;;;;5023476;28;8801;-64
2022/05/17 12:02:45;;;;;;;;;11.60;10.20;;;;;;;;5036800;28;8809;-64
2022/05/17 12:05:12;;;;;;;;;11.80;11.40;;;;;;;;5041164;28;8766;-64
2022/05/17 12:07:39;;;;;;;;;13.20;12.00;;;;;;;;5022537;28;8824;-64
2022/05/17 12:10:13;;;;;;;;;37.75;33.25;;;;;;;;5040925;28;8741;-64
2022/05/17 12:12:46;;;;;;;;;72.60;60.80;;;;;;;;5031778;28;8773;-64
2022/05/17 12:15:23;;;;;;;;;47.25;37.00;;;;;;;;5040587;28;8862;-64
2022/05/17 12:18:08;;;;;;;;;50.50;37.75;;;;;;;;5040725;28;8777;-64
2022/05/17 12:20:44;;;;;;;;;37.25;30.00;;;;;;;;5020522;28;8775;-63
2022/05/17 12:23:11;;;;;;;;;16.25;15.25;;;;;;;;5021176;28;8771;-63
2022/05/17 12:25:38;;;;;;;;;26.00;25.00;;;;;;;;5047055;28;8758;-63
2022/05/17 12:28:06;;;;;;;;;25.25;23.00;;;;;;;;5042620;28;8759;-64
2022/05/17 12:33:20;;;;;;;;;18.75;17.50;;;;;;;;5059881;28;9387;-63
2022/05/17 12:35:47;;;;;;;;;21.75;18.50;;;;;;;;5042145;28;8918;-64
2022/05/17 12:44:06;;;;;;;;;14.00;12.20;;;;;;;;5033519;28;8877;-64
2022/05/17 12:46:35;;;;;;;;;13.60;12.80;;;;;;;;5018478;28;8817;-64
2022/05/17 12:49:02;;;;;;;;;21.00;16.00;;;;;;;;5035553;28;8832;-64
2022/05/17 12:51:29;;;;;;;;;15.80;15.20;;;;;;;;5019920;28;8763;-64
2022/05/17 12:54:03;;;;;;;;;14.80;12.60;;;;;;;;5035218;28;8779;-64
2022/05/17 12:56:32;;;;;;;;;14.80;12.00;;;;;;;;5014987;28;8765;-64
2022/05/17 12:59:01;;;;;;;;;17.40;14.40;;;;;;;;4983125;28;8791;-64
2022/05/17 13:01:35;;;;;;;;;14.40;12.60;;;;;;;;4999326;28;8900;-64
2022/05/17 13:04:07;;;;;;;;;13.20;11.60;;;;;;;;5000573;28;8757;-64
2022/05/17 13:06:37;;;;;;;;;16.40;12.40;;;;;;;;4999963;28;8785;-64
2022/05/17 13:09:06;;;;;;;;;15.80;11.80;;;;;;;;5000100;28;8761;-64
2022/05/17 13:11:33;;;;;;;;;17.60;13.80;;;;;;;;5014349;28;9451;-64
2022/05/17 13:14:05;;;;;;;;;14.20;12.40;;;;;;;;5019392;28;8766;-64
2022/05/17 13:16:33;;;;;;;;;14.20;12.40;;;;;;;;5017885;28;8747;-64
2022/05/17 13:19:01;;;;;;;;;18.80;14.80;;;;;;;;5018339;28;8755;-64
2022/05/17 13:21:35;;;;;;;;;19.40;14.60;;;;;;;;5019377;28;9543;-64
2022/05/17 13:24:03;;;;;;;;;19.00;17.20;;;;;;;;5019423;28;8763;-64
2022/05/17 13:26:30;;;;;;;;;31.60;26.20;;;;;;;;5017833;28;9434;-64
2022/05/17 13:29:11;;;;;;;;;29.25;24.25;;;;;;;;5018012;28;8805;-64
2022/05/17 13:31:37;;;;;;;;;14.80;10.80;;;;;;;;5019435;28;8797;-64
2022/05/17 13:34:05;;;;;;;;;15.40;15.20;;;;;;;;5002232;28;8735;-64
2022/05/17 13:36:33;;;;;;;;;17.00;12.00;;;;;;;;5001808;28;8799;-64
2022/05/17 13:39:00;;;;;;;;;13.80;13.60;;;;;;;;5019454;28;8794;-64
2022/05/17 13:41:30;;;;;;;;;16.20;13.20;;;;;;;;5018585;28;8805;-64
2022/05/17 13:44:00;;;;;;;;;17.40;15.80;;;;;;;;5019095;28;8790;-64
2022/05/17 13:46:30;;;;;;;;;15.20;10.00;;;;;;;;5033786;28;8739;-63
2022/05/17 13:49:08;;;;;;;;;21.80;14.80;;;;;;;;5034313;28;8731;-64
2022/05/17 13:51:37;;;;;;;;;20.20;16.00;;;;;;;;5033548;28;8786;-64
2022/05/17 13:54:11;;;;;;;;;17.00;15.40;;;;;;;;5020851;28;8745;-64
2022/05/17 13:56:40;;;;;;;;;25.00;17.00;;;;;;;;5009675;28;8801;-64
2022/05/17 13:59:07;;;;;;;;;19.80;17.60;;;;;;;;5020662;28;8773;-64
2022/05/17 14:01:37;;;;;;;;;15.60;13.60;;;;;;;;5020414;28;8904;-64
2022/05/17 14:04:23;;;;;;;;;14.40;12.60;;;;;;;;5021681;28;8750;-64
2022/05/17 14:06:53;;;;;;;;;14.40;14.20;;;;;;;;5039283;28;8766;-64
2022/05/17 14:12:13;;;;;;;;;17.40;14.80;;;;;;;;5018737;28;8775;-64
2022/05/17 14:14:40;;;;;;;;;17.40;13.80;;;;;;;;5018435;28;8905;-64
2022/05/17 14:17:08;;;;;;;;;19.50;16.50;;;;;;;;5014896;28;8767;-64
2022/05/17 14:19:35;;;;;;;;;19.50;16.75;;;;;;;;5033159;28;8869;-64
2022/05/17 14:22:03;;;;;;;;;18.60;17.00;;;;;;;;5017412;28;8850;-64
2022/05/17 14:24:30;;;;;;;;;20.50;15.75;;;;;;;;5016715;28;8837;-64
2022/05/17 14:26:58;;;;;;;;;15.25;14.00;;;;;;;;4998305;28;9619;-64
2022/05/17 14:29:26;;;;;;;;;17.20;15.40;;;;;;;;4981061;28;8781;-64
2022/05/17 14:31:54;;;;;;;;;18.20;16.60;;;;;;;;4998489;28;8753;-63
2022/05/17 14:34:21;;;;;;;;;20.60;16.80;;;;;;;;4998605;28;8766;-64
2022/05/17 14:36:48;;;;;;;;;20.20;15.40;;;;;;;;4998598;28;8887;-64
2022/05/17 14:39:15;;;;;;;;;19.40;16.20;;;;;;;;4996990;28;8792;-64
2022/05/17 14:41:46;;;;;;;;;18.60;16.40;;;;;;;;5013746;28;8796;-64
2022/05/17 14:44:18;;;;;;;;;13.80;13.40;;;;;;;;5017915;28;8887;-64
2022/05/17 14:46:46;;;;;;;;;12.50;11.75;;;;;;;;5017789;28;8803;-64
2022/05/17 14:49:14;;;;;;;;;18.00;16.00;;;;;;;;5017040;28;8735;-64
2022/05/17 14:51:41;;;;;;;;;21.20;18.20;;;;;;;;5017681;28;9068;-64
2022/05/17 14:54:08;;;;;;;;;21.20;17.80;;;;;;;;5032649;28;9890;-64
2022/05/17 14:56:34;;;;;;;;;19.60;17.60;;;;;;;;5020864;28;8771;-64
2022/05/17 14:59:01;;;;;;;;;25.20;21.80;;;;;;;;5017606;28;8793;-64
2022/05/17 15:01:28;;;;;;;;;22.50;19.25;;;;;;;;5017083;28;9018;-63
2022/05/17 15:03:57;;;;;;;;;31.25;26.00;;;;;;;;5000686;28;8759;-64
2022/05/17 15:06:24;;;;;;;;;26.00;21.50;;;;;;;;5000063;28;8755;-63
2022/05/17 15:08:50;;;;;;;;;25.50;19.25;;;;;;;;5017427;28;8793;-64
2022/05/17 15:11:19;;;;;;;;;23.00;20.00;;;;;;;;5005417;28;8841;-64
2022/05/17 15:13:46;;;;;;;;;28.25;25.00;;;;;;;;5017300;28;8759;-64
2022/05/17 15:16:14;;;;;;;;;20.80;14.80;;;;;;;;5017870;28;9401;-64
2022/05/17 15:18:43;;;;;;;;;23.20;22.60;;;;;;;;5032527;28;8747;-63
2022/05/17 15:21:09;;;;;;;;;25.50;23.75;;;;;;;;5032493;28;9024;-64
2022/05/17 15:23:37;;;;;;;;;20.20;19.60;;;;;;;;5016795;28;8818;-63
2022/05/17 15:26:04;;;;;;;;;22.50;20.25;;;;;;;;5019490;28;9310;-64